createdAt,value
2022-11-02T00:00:15.353Z,96.98
2022-11-02T00:01:22.449Z,96.62
2022-11-02T00:02:25.537Z,96.91
2022-11-02T00:03:29.524Z,96.80
2022-11-02T00:04:32.438Z,96.65
2022-11-02T00:05:36.352Z,96.75
2022-11-02T00:06:39.213Z,96.82
2022-11-02T00:07:43.470Z,97.00
2022-11-02T00:08:46.450Z,97.15
2022-11-02T00:09:50.241Z,96.76
2022-11-02T00:10:54.443Z,97.04
2022-11-02T00:11:58.743Z,96.95
2022-11-02T00:13:02.879Z,97.10
2022-11-02T00:14:06.020Z,96.63
2022-11-02T00:15:11.130Z,96.75
2022-11-02T00:16:16.021Z,96.86
2022-11-02T00:17:19.969Z,96.77
2022-11-02T00:18:22.870Z,96.91
2022-11-02T00:19:26.851Z,96.81
2022-11-02T00:20:29.800Z,96.81
2022-11-02T00:21:33.919Z,96.59
2022-11-02T00:22:37.079Z,96.53
2022-11-02T00:23:42.171Z,96.61
2022-11-02T00:24:44.970Z,97.07
2022-11-02T00:25:50.645Z,97.12
2022-11-02T00:26:53.787Z,96.84
2022-11-02T00:27:59.133Z,96.97
2022-11-02T00:29:02.119Z,96.89
2022-11-02T00:30:06.582Z,96.87
2022-11-02T00:31:09.532Z,97.02
2022-11-02T00:32:13.381Z,96.69
2022-11-02T00:33:16.328Z,96.60
2022-11-02T00:34:21.261Z,96.35
2022-11-02T00:35:24.081Z,96.25
2022-11-02T00:36:28.351Z,96.16
2022-11-02T00:37:31.134Z,96.08
2022-11-02T00:38:35.023Z,96.28
2022-11-02T00:39:37.870Z,96.23
2022-11-02T00:40:41.792Z,95.89
2022-11-02T00:41:44.597Z,96.19
2022-11-02T00:42:48.475Z,95.81
2022-11-02T00:43:53.101Z,95.51
2022-11-02T00:44:56.980Z,95.52
2022-11-02T00:45:59.761Z,95.27
2022-11-02T00:47:03.723Z,95.24
2022-11-02T00:48:07.225Z,96.08
2022-11-02T00:49:11.422Z,96.09
2022-11-02T00:50:14.288Z,96.09
2022-11-02T00:51:18.179Z,95.88
2022-11-02T00:52:21.430Z,95.61
2022-11-02T00:53:28.502Z,96.06
2022-11-02T00:54:31.332Z,96.02
2022-11-02T00:55:36.463Z,95.66
2022-11-02T00:56:39.802Z,95.55
2022-11-02T00:57:44.550Z,95.87
2022-11-02T00:58:47.371Z,96.15
2022-11-02T00:59:52.671Z,96.21
2022-11-02T01:00:56.821Z,96.17
2022-11-02T01:02:00.800Z,96.02
2022-11-02T01:03:03.998Z,96.57
2022-11-02T01:04:08.530Z,96.94
2022-11-02T01:05:11.936Z,96.52
2022-11-02T01:06:17.001Z,96.94
2022-11-02T01:07:20.091Z,97.42
2022-11-02T01:08:24.218Z,97.56
2022-11-02T01:09:27.079Z,97.47
2022-11-02T01:10:31.259Z,97.60
2022-11-02T01:11:36.392Z,98.26
2022-11-02T01:12:40.490Z,98.31
2022-11-02T01:13:43.639Z,98.17
2022-11-02T01:14:47.932Z,98.21
2022-11-02T01:15:52.183Z,98.07
2022-11-02T01:16:58.112Z,98.05
2022-11-02T01:18:01.352Z,97.85
2022-11-02T01:19:05.438Z,98.04
2022-11-02T01:20:10.058Z,97.60
2022-11-02T01:21:13.963Z,97.68
2022-11-02T01:22:17.853Z,98.22
2022-11-02T01:23:20.681Z,97.94
2022-11-02T01:24:24.857Z,97.87
2022-11-02T01:25:27.672Z,97.87
2022-11-02T01:26:31.569Z,98.08
2022-11-02T01:27:34.370Z,98.31
2022-11-02T01:28:38.493Z,98.23
2022-11-02T01:29:41.380Z,98.31
2022-11-02T01:30:45.450Z,98.62
2022-11-02T01:31:50.179Z,98.89
2022-11-02T01:32:54.184Z,98.71
2022-11-02T01:33:57.011Z,98.72
2022-11-02T01:35:00.940Z,98.97
2022-11-02T01:36:04.832Z,98.71
2022-11-02T01:37:08.673Z,98.46
2022-11-02T01:38:11.474Z,98.87
2022-11-02T01:39:15.448Z,98.71
2022-11-02T01:40:18.264Z,98.56
2022-11-02T01:41:22.194Z,98.72
2022-11-02T01:42:28.170Z,98.89
2022-11-02T01:43:34.630Z,98.91
2022-11-02T01:44:37.409Z,98.76
2022-11-02T01:45:41.570Z,98.96
2022-11-02T01:46:46.179Z,99.05
2022-11-02T01:47:53.506Z,98.87
2022-11-02T01:48:59.075Z,98.70
2022-11-02T01:50:06.983Z,98.71
2022-11-02T01:51:11.518Z,99.00
2022-11-02T01:52:17.952Z,98.31
2022-11-02T01:53:20.823Z,98.23
2022-11-02T01:54:27.814Z,98.45
2022-11-02T01:55:32.145Z,97.98
2022-11-02T01:56:37.154Z,98.02
2022-11-02T01:57:42.235Z,97.77
2022-11-02T01:58:48.233Z,97.74
2022-11-02T01:59:53.464Z,97.82
2022-11-02T02:00:57.826Z,97.51
2022-11-02T02:02:01.549Z,97.39
2022-11-02T02:03:10.162Z,96.54
2022-11-02T02:04:13.783Z,96.75
2022-11-02T02:05:18.531Z,96.88
2022-11-02T02:06:21.352Z,96.30
2022-11-02T02:07:27.609Z,96.17
2022-11-02T02:08:30.800Z,96.01
2022-11-02T02:09:34.945Z,96.46
2022-11-02T02:10:37.946Z,96.27
2022-11-02T02:11:43.145Z,95.94
2022-11-02T02:12:46.086Z,96.08
2022-11-02T02:13:54.790Z,96.14
2022-11-02T02:14:58.075Z,96.29
2022-11-02T02:16:04.946Z,95.96
2022-11-02T02:17:18.744Z,95.80
2022-11-02T02:18:27.784Z,95.73
2022-11-02T02:19:39.793Z,96.03
2022-11-02T02:21:00.583Z,95.92
2022-11-02T02:22:28.004Z,95.37
2022-11-02T02:23:42.804Z,95.46
2022-11-02T02:24:50.248Z,95.26
2022-11-02T02:26:29.962Z,95.31
2022-11-02T02:27:47.403Z,95.07
2022-11-02T02:28:54.375Z,94.62
2022-11-02T02:30:05.051Z,94.77
2022-11-02T02:31:13.264Z,93.98
2022-11-02T02:32:20.020Z,94.04
2022-11-02T02:33:26.856Z,94.28
2022-11-02T02:34:35.527Z,93.54
2022-11-02T02:35:42.047Z,93.41
2022-11-02T02:36:51.597Z,94.10
2022-11-02T02:37:56.146Z,93.11
2022-11-02T02:39:04.044Z,93.70
2022-11-02T02:40:09.844Z,92.73
2022-11-02T02:41:19.795Z,92.61
2022-11-02T02:42:24.596Z,93.35
2022-11-02T02:43:35.046Z,93.58
2022-11-02T02:44:39.072Z,93.33
2022-11-02T02:45:45.988Z,94.01
2022-11-02T02:46:56.233Z,94.11
2022-11-02T02:48:03.993Z,93.43
2022-11-02T02:49:08.395Z,94.73
2022-11-02T02:50:16.364Z,94.52
2022-11-02T02:51:22.266Z,94.96
2022-11-02T02:52:28.825Z,94.74
2022-11-02T02:53:36.726Z,95.17
2022-11-02T02:54:42.519Z,94.53
2022-11-02T02:55:47.080Z,94.45
2022-11-02T02:56:55.505Z,95.02
2022-11-02T02:57:58.749Z,94.80
2022-11-02T02:59:06.923Z,94.79
2022-11-02T03:00:14.114Z,94.18
2022-11-02T03:01:18.824Z,94.67
2022-11-02T03:02:23.831Z,93.99
2022-11-02T03:03:28.993Z,93.97
2022-11-02T03:04:31.917Z,94.42
2022-11-02T03:05:37.517Z,93.75
2022-11-02T03:06:48.628Z,93.48
2022-11-02T03:07:52.774Z,93.28
2022-11-02T03:09:03.275Z,93.37
2022-11-02T03:10:12.195Z,92.72
2022-11-02T03:11:16.603Z,93.01
2022-11-02T03:12:29.533Z,93.04
2022-11-02T03:13:40.196Z,92.88
2022-11-02T03:14:55.876Z,92.33
2022-11-02T03:16:04.084Z,92.51
2022-11-02T03:17:16.765Z,91.77
2022-11-02T03:18:30.930Z,92.14
2022-11-02T03:19:42.665Z,92.61
2022-11-02T03:20:55.546Z,92.35
2022-11-02T03:22:02.302Z,92.21
2022-11-02T03:23:13.394Z,91.72
2022-11-02T03:24:20.756Z,91.95
2022-11-02T03:25:29.470Z,92.22
2022-11-02T03:26:36.382Z,92.41
2022-11-02T03:27:41.088Z,92.60
2022-11-02T03:28:55.670Z,92.86
2022-11-02T03:30:04.721Z,92.62
2022-11-02T03:31:11.990Z,92.84
2022-11-02T03:32:21.776Z,93.10
2022-11-02T03:33:29.559Z,93.48
2022-11-02T03:34:38.126Z,93.68
2022-11-02T03:35:45.085Z,93.77
2022-11-02T03:36:51.522Z,93.96
2022-11-02T03:38:00.365Z,94.39
2022-11-02T03:39:06.994Z,94.20
2022-11-02T03:40:16.225Z,93.98
2022-11-02T03:41:22.533Z,94.50
2022-11-02T03:42:28.541Z,94.27
2022-11-02T03:43:34.457Z,94.60
2022-11-02T03:44:39.115Z,95.66
2022-11-02T03:45:49.215Z,95.75
2022-11-02T03:46:55.915Z,95.42
2022-11-02T03:48:03.488Z,95.63
2022-11-02T03:49:08.742Z,96.48
2022-11-02T03:50:16.685Z,96.51
2022-11-02T03:51:21.743Z,97.04
2022-11-02T03:52:29.714Z,97.30
2022-11-02T03:53:36.304Z,96.92
2022-11-02T03:54:44.137Z,97.47
2022-11-02T03:55:49.455Z,97.38
2022-11-02T03:56:55.055Z,97.90
2022-11-02T03:57:59.305Z,98.06
2022-11-02T03:59:06.458Z,98.48
2022-11-02T04:00:11.516Z,99.00
2022-11-02T04:01:21.103Z,98.31
2022-11-02T04:02:24.936Z,98.03
2022-11-02T04:03:29.732Z,98.00
2022-11-02T04:04:32.565Z,98.43
2022-11-02T04:05:38.169Z,97.97
2022-11-02T04:06:48.816Z,98.65
2022-11-02T04:08:12.954Z,97.77
2022-11-02T04:09:16.974Z,97.67
2022-11-02T04:10:20.044Z,97.71
2022-11-02T04:11:41.394Z,97.89
2022-11-02T04:13:10.261Z,97.06
2022-11-02T04:14:31.341Z,96.23
2022-11-02T04:15:36.936Z,96.40
2022-11-02T04:16:41.685Z,96.41
2022-11-02T04:18:08.578Z,96.38
2022-11-02T04:19:30.078Z,96.49
2022-11-02T04:20:43.356Z,96.46
2022-11-02T04:22:00.968Z,95.98
2022-11-02T04:23:23.033Z,96.04
2022-11-02T04:24:46.425Z,95.74
2022-11-02T04:25:54.644Z,95.33
2022-11-02T04:27:10.511Z,96.09
2022-11-02T04:28:14.419Z,96.49
2022-11-02T04:29:31.444Z,96.05
2022-11-02T04:30:35.337Z,95.66
2022-11-02T04:31:38.778Z,94.81
2022-11-02T04:33:02.191Z,95.45
2022-11-02T04:34:09.598Z,95.05
2022-11-02T04:35:13.001Z,95.35
2022-11-02T04:36:17.548Z,94.97
2022-11-02T04:37:40.948Z,94.81
2022-11-02T04:38:43.825Z,94.37
2022-11-02T04:40:00.651Z,94.84
2022-11-02T04:41:21.987Z,95.56
2022-11-02T04:42:28.217Z,95.49
2022-11-02T04:43:35.104Z,95.63
2022-11-02T04:44:39.535Z,95.29
2022-11-02T04:45:50.166Z,95.40
2022-11-02T04:46:54.163Z,95.25
2022-11-02T04:48:03.228Z,94.85
2022-11-02T04:49:08.323Z,94.94
2022-11-02T04:50:13.084Z,94.64
2022-11-02T04:51:20.731Z,93.93
2022-11-02T04:52:23.795Z,93.84
2022-11-02T04:53:28.725Z,94.01
2022-11-02T04:54:31.680Z,93.77
2022-11-02T04:55:39.000Z,93.92
2022-11-02T04:56:42.836Z,94.47
2022-11-02T04:57:46.872Z,93.85
2022-11-02T04:58:50.877Z,93.66
2022-11-02T04:59:54.767Z,93.85
2022-11-02T05:00:57.557Z,93.48
2022-11-02T05:02:01.737Z,93.66
2022-11-02T05:03:09.595Z,93.18
2022-11-02T05:04:17.424Z,93.14
2022-11-02T05:05:20.925Z,93.17
2022-11-02T05:06:27.444Z,93.21
2022-11-02T05:07:31.338Z,93.16
2022-11-02T05:08:35.346Z,92.98
2022-11-02T05:09:38.335Z,92.83
2022-11-02T05:10:42.603Z,92.73
2022-11-02T05:11:45.766Z,93.32
2022-11-02T05:12:49.975Z,93.39
2022-11-02T05:13:53.516Z,93.57
2022-11-02T05:14:57.358Z,94.19
2022-11-02T05:16:00.504Z,94.07
2022-11-02T05:17:06.452Z,94.18
2022-11-02T05:18:17.696Z,94.09
2022-11-02T05:19:22.954Z,94.10
2022-11-02T05:20:25.902Z,93.92
2022-11-02T05:21:30.761Z,93.70
2022-11-02T05:22:34.274Z,93.90
2022-11-02T05:23:38.601Z,94.04
2022-11-02T05:24:41.734Z,94.20
2022-11-02T05:25:54.015Z,94.28
2022-11-02T05:26:58.105Z,93.95
2022-11-02T05:28:02.369Z,94.00
2022-11-02T05:29:06.414Z,94.40
2022-11-02T05:30:11.024Z,93.91
2022-11-02T05:31:15.261Z,94.07
2022-11-02T05:32:19.544Z,93.74
2022-11-02T05:33:30.282Z,93.88
2022-11-02T05:34:35.096Z,93.64
2022-11-02T05:35:39.043Z,94.19
2022-11-02T05:36:41.985Z,94.47
2022-11-02T05:37:45.988Z,94.64
2022-11-02T05:38:48.817Z,94.57
2022-11-02T05:39:52.903Z,95.02
2022-11-02T05:40:57.759Z,95.08
2022-11-02T05:42:04.841Z,94.90
2022-11-02T05:43:09.105Z,95.35
2022-11-02T05:44:14.037Z,95.27
2022-11-02T05:45:20.585Z,94.74
2022-11-02T05:46:28.322Z,95.17
2022-11-02T05:47:31.100Z,95.28
2022-11-02T05:48:36.414Z,95.46
2022-11-02T05:49:39.216Z,95.37
2022-11-02T05:50:43.024Z,95.77
2022-11-02T05:51:45.765Z,95.80
2022-11-02T05:52:49.553Z,96.46
2022-11-02T05:53:52.398Z,96.66
2022-11-02T05:54:56.274Z,97.02
2022-11-02T05:55:59.725Z,97.36
2022-11-02T05:57:03.833Z,97.30
2022-11-02T05:58:06.711Z,97.29
2022-11-02T05:59:11.621Z,97.62
2022-11-02T06:00:14.912Z,97.54
2022-11-02T06:01:18.815Z,97.65
2022-11-02T06:02:24.766Z,98.16
2022-11-02T06:03:28.718Z,97.80
2022-11-02T06:04:34.115Z,98.24
2022-11-02T06:05:37.070Z,98.71
2022-11-02T06:06:41.174Z,99.00
2022-11-02T06:07:44.015Z,98.73
2022-11-02T06:08:47.817Z,99.31
2022-11-02T06:09:50.567Z,99.06
2022-11-02T06:11:05.675Z,99.90
2022-11-02T06:12:20.164Z,100.00
2022-11-02T06:13:24.184Z,99.78
2022-11-02T06:14:43.212Z,99.87
2022-11-02T06:15:46.154Z,100.00
2022-11-02T06:16:50.050Z,100.00
2022-11-02T06:17:53.072Z,100.00
2022-11-02T06:18:57.153Z,100.00
2022-11-02T06:20:01.466Z,100.00
2022-11-02T06:21:05.648Z,100.00
2022-11-02T06:22:08.461Z,100.00
2022-11-02T06:23:14.413Z,100.00
2022-11-02T06:24:35.987Z,100.00
2022-11-02T06:25:54.137Z,100.00
2022-11-02T06:27:15.938Z,100.00
2022-11-02T06:28:35.948Z,100.00
2022-11-02T06:29:50.485Z,100.00
2022-11-02T06:31:11.522Z,100.00
2022-11-02T06:32:30.457Z,100.00
2022-11-02T06:33:46.180Z,100.00
2022-11-02T06:34:49.023Z,100.00
2022-11-02T06:35:55.651Z,100.00
2022-11-02T06:37:15.133Z,100.00
2022-11-02T06:38:36.113Z,100.00
2022-11-02T06:39:55.944Z,100.00
2022-11-02T06:41:11.815Z,100.00
2022-11-02T06:42:44.926Z,100.00
2022-11-02T06:44:06.273Z,100.00
2022-11-02T06:45:21.501Z,100.00
2022-11-02T06:46:40.445Z,100.00
2022-11-02T06:48:02.138Z,100.00
2022-11-02T06:49:05.975Z,100.00
2022-11-02T06:50:09.728Z,100.00
2022-11-02T06:51:15.044Z,100.00
2022-11-02T06:52:17.817Z,100.00
2022-11-02T06:53:21.636Z,100.00
2022-11-02T06:54:24.574Z,100.00
2022-11-02T06:55:28.423Z,100.00
2022-11-02T06:56:51.648Z,100.00
2022-11-02T06:57:55.025Z,100.00
2022-11-02T06:59:11.537Z,100.00
2022-11-02T07:00:31.785Z,100.00
2022-11-02T07:01:36.430Z,100.00
2022-11-02T07:02:59.968Z,100.00
2022-11-02T07:04:03.975Z,100.00
2022-11-02T07:05:21.537Z,100.00
2022-11-02T07:06:42.945Z,100.00
2022-11-02T07:08:01.600Z,100.00
2022-11-02T07:09:21.576Z,100.00
2022-11-02T07:10:43.108Z,100.00
2022-11-02T07:12:01.563Z,100.00
2022-11-02T07:13:20.695Z,100.00
2022-11-02T07:14:23.423Z,100.00
2022-11-02T07:15:28.324Z,100.00
2022-11-02T07:16:32.278Z,100.00
2022-11-02T07:17:35.173Z,100.00
2022-11-02T07:18:39.105Z,100.00
2022-11-02T07:19:41.974Z,100.00
2022-11-02T07:20:45.885Z,100.00
2022-11-02T07:21:50.137Z,100.00
2022-11-02T07:22:54.642Z,100.00
2022-11-02T07:23:57.609Z,100.00
2022-11-02T07:25:01.598Z,100.00
2022-11-02T07:26:05.344Z,100.00
2022-11-02T07:27:09.286Z,100.00
2022-11-02T07:28:12.212Z,100.00
2022-11-02T07:29:16.407Z,100.00
2022-11-02T07:30:19.402Z,100.00
2022-11-02T07:31:23.300Z,100.00
2022-11-02T07:32:27.336Z,100.00
2022-11-02T07:33:30.254Z,100.00
2022-11-02T07:34:34.328Z,100.00
2022-11-02T07:35:38.171Z,100.00
2022-11-02T07:36:40.946Z,100.00
2022-11-02T07:37:46.525Z,100.00
2022-11-02T07:38:49.374Z,100.00
2022-11-02T07:39:53.304Z,100.00
2022-11-02T07:40:56.134Z,100.00
2022-11-02T07:42:00.210Z,100.00
2022-11-02T07:43:04.613Z,100.00
2022-11-02T07:44:44.047Z,100.00
2022-11-02T07:45:47.826Z,100.00
2022-11-02T07:46:51.665Z,100.00
2022-11-02T07:47:55.485Z,100.00
2022-11-02T07:48:59.408Z,100.00
2022-11-02T07:50:03.665Z,100.00
2022-11-02T07:51:08.092Z,100.00
2022-11-02T07:52:11.917Z,100.00
2022-11-02T07:53:17.499Z,100.00
2022-11-02T07:54:21.460Z,100.00
2022-11-02T07:55:25.933Z,100.00
2022-11-02T07:56:29.897Z,100.00
2022-11-02T07:57:32.844Z,100.00
2022-11-02T07:58:36.885Z,100.00
2022-11-02T07:59:39.730Z,100.00
2022-11-02T08:00:44.125Z,100.00
2022-11-02T08:01:46.921Z,100.00
2022-11-02T08:02:51.597Z,100.00
2022-11-02T08:03:54.983Z,100.00
2022-11-02T08:04:58.786Z,100.00
2022-11-02T08:06:02.567Z,100.00
2022-11-02T08:07:06.427Z,100.00
2022-11-02T08:08:11.913Z,100.00
2022-11-02T08:09:17.177Z,100.00
2022-11-02T08:10:19.965Z,100.00
2022-11-02T08:11:23.849Z,100.00
2022-11-02T08:12:27.319Z,100.00
2022-11-02T08:13:32.700Z,100.00
2022-11-02T08:14:37.008Z,100.00
2022-11-02T08:15:39.945Z,100.00
2022-11-02T08:16:44.564Z,100.00
2022-11-02T08:17:47.283Z,100.00
2022-11-02T08:18:51.546Z,100.00
2022-11-02T08:19:54.437Z,100.00
2022-11-02T08:20:59.276Z,100.00
2022-11-02T08:22:02.080Z,100.00
2022-11-02T08:23:07.767Z,100.00
2022-11-02T08:24:10.617Z,100.00
2022-11-02T08:26:23.606Z,100.00
2022-11-02T08:27:27.406Z,100.00
2022-11-02T08:28:32.320Z,100.00
2022-11-02T08:29:37.126Z,100.00
2022-11-02T08:30:39.876Z,100.00
2022-11-02T08:31:43.674Z,100.00
2022-11-02T08:32:46.485Z,100.00
2022-11-02T08:33:50.499Z,100.00
2022-11-02T08:34:53.195Z,100.00
2022-11-02T08:36:03.305Z,100.00
2022-11-02T08:37:07.777Z,100.00
2022-11-02T08:38:11.859Z,100.00
2022-11-02T08:39:18.603Z,100.00
2022-11-02T08:40:24.957Z,100.00
2022-11-02T08:41:27.844Z,100.00
2022-11-02T08:42:31.740Z,100.00
2022-11-02T08:43:35.913Z,100.00
2022-11-02T08:44:42.483Z,100.00
2022-11-02T08:47:10.925Z,100.00
2022-11-02T08:48:13.982Z,100.00
2022-11-02T08:49:18.915Z,100.00
2022-11-02T08:50:22.164Z,100.00
2022-11-02T08:51:26.003Z,100.00
2022-11-02T08:52:28.793Z,100.00
2022-11-02T08:53:32.743Z,100.00
2022-11-02T08:54:35.523Z,100.00
2022-11-02T08:55:40.745Z,100.00
2022-11-02T08:56:44.572Z,100.00
2022-11-02T08:57:47.818Z,100.00
2022-11-02T08:58:51.604Z,100.00
2022-11-02T08:59:54.344Z,100.00
2022-11-02T09:00:58.176Z,100.00
2022-11-02T09:02:01.142Z,100.00
2022-11-02T09:03:06.975Z,100.00
2022-11-02T09:04:11.031Z,100.00
2022-11-02T09:05:18.986Z,100.00
2022-11-02T09:06:23.435Z,100.00
2022-11-02T09:07:28.980Z,100.00
2022-11-02T09:08:31.960Z,100.00
2022-11-02T09:09:35.845Z,100.00
2022-11-02T09:10:40.166Z,100.00
2022-11-02T09:11:43.914Z,100.00
2022-11-02T09:12:46.752Z,100.00
2022-11-02T09:13:54.256Z,99.94
2022-11-02T09:14:59.544Z,99.29
2022-11-02T09:16:03.515Z,99.08
2022-11-02T09:17:06.402Z,98.59
2022-11-02T09:18:10.592Z,97.92
2022-11-02T09:19:14.495Z,96.65
2022-11-02T09:20:18.016Z,95.70
2022-11-02T09:21:21.874Z,95.39
2022-11-02T09:22:24.669Z,95.26
2022-11-02T09:23:28.479Z,94.23
2022-11-02T09:24:31.281Z,93.50
2022-11-02T09:25:35.310Z,93.30
2022-11-02T09:26:40.716Z,92.67
2022-11-02T09:27:44.025Z,92.62
2022-11-02T09:28:48.153Z,91.97
2022-11-02T09:29:51.062Z,90.86
2022-11-02T09:30:54.937Z,90.50
2022-11-02T09:31:58.924Z,90.42
2022-11-02T09:33:03.840Z,90.65
2022-11-02T09:34:08.016Z,90.78
2022-11-02T09:35:15.426Z,90.09
2022-11-02T09:36:19.462Z,90.43
2022-11-02T09:37:22.396Z,90.41
2022-11-02T09:38:27.124Z,90.78
2022-11-02T09:39:30.014Z,90.83
2022-11-02T09:40:41.514Z,90.92
2022-11-02T09:41:51.102Z,91.05
2022-11-02T09:43:09.635Z,90.30
2022-11-02T09:44:16.584Z,90.22
2022-11-02T09:45:20.618Z,90.72
2022-11-02T09:46:27.285Z,90.55
2022-11-02T09:48:59.591Z,90.32
2022-11-02T09:50:03.905Z,90.25
2022-11-02T09:51:11.334Z,90.39
2022-11-02T09:52:26.577Z,90.26
2022-11-02T09:53:38.033Z,90.19
2022-11-02T09:54:44.019Z,89.93
2022-11-02T09:55:51.413Z,89.89
2022-11-02T09:56:59.936Z,89.94
2022-11-02T09:58:07.974Z,89.92
2022-11-02T09:59:15.387Z,89.40
2022-11-02T10:00:19.859Z,89.45
2022-11-02T10:01:35.856Z,89.60
2022-11-02T10:02:48.771Z,89.68
2022-11-02T10:04:09.692Z,89.48
2022-11-02T10:05:26.403Z,89.70
2022-11-02T10:06:30.764Z,89.42
2022-11-02T10:07:44.544Z,89.51
2022-11-02T10:08:54.064Z,89.15
2022-11-02T10:09:58.939Z,88.91
2022-11-02T10:11:13.083Z,89.03
2022-11-02T10:12:22.345Z,89.32
2022-11-02T10:13:33.575Z,89.17
2022-11-02T10:14:40.354Z,88.81
2022-11-02T10:15:48.069Z,88.62
2022-11-02T10:17:15.514Z,88.50
2022-11-02T10:18:20.186Z,87.71
2022-11-02T10:19:27.769Z,87.35
2022-11-02T10:20:38.014Z,86.91
2022-11-02T10:21:43.495Z,85.51
2022-11-02T10:22:47.834Z,85.55
2022-11-02T10:23:53.388Z,85.15
2022-11-02T10:24:57.420Z,84.61
2022-11-02T10:26:01.714Z,83.99
2022-11-02T10:27:14.062Z,83.48
2022-11-02T10:28:22.113Z,82.88
2022-11-02T10:29:38.854Z,81.66
2022-11-02T10:30:43.624Z,82.02
2022-11-02T10:31:48.802Z,81.78
2022-11-02T10:32:54.425Z,81.42
2022-11-02T10:33:58.393Z,80.39
2022-11-02T10:35:17.861Z,80.30
2022-11-02T10:36:35.322Z,80.17
2022-11-02T10:37:52.475Z,80.29
2022-11-02T10:39:06.514Z,79.59
2022-11-02T10:40:20.638Z,77.61
2022-11-02T10:41:45.752Z,76.00
2022-11-02T10:43:07.050Z,75.94
2022-11-02T10:44:23.657Z,77.27
2022-11-02T10:45:42.805Z,77.24
2022-11-02T10:46:57.802Z,76.38
2022-11-02T10:48:05.718Z,76.43
2022-11-02T10:49:15.081Z,77.02
2022-11-02T10:50:32.430Z,76.06
2022-11-02T10:51:35.283Z,77.25
2022-11-02T10:52:40.686Z,77.06
2022-11-02T10:53:46.085Z,76.99
2022-11-02T10:54:50.605Z,76.59
2022-11-02T10:55:59.838Z,76.13
2022-11-02T10:57:11.211Z,76.02
2022-11-02T10:58:17.742Z,75.63
2022-11-02T10:59:24.276Z,75.67
2022-11-02T11:00:29.812Z,75.84
2022-11-02T11:01:33.781Z,75.12
2022-11-02T11:02:36.415Z,75.45
2022-11-02T11:03:55.955Z,72.22
2022-11-02T11:05:14.180Z,70.58
2022-11-02T11:06:17.896Z,74.30
2022-11-02T11:07:25.552Z,73.55
2022-11-02T11:08:47.255Z,70.19
2022-11-02T11:09:52.486Z,72.72
2022-11-02T11:10:56.773Z,73.38
2022-11-02T11:12:01.875Z,72.19
2022-11-02T11:13:07.811Z,72.12
2022-11-02T11:16:51.304Z,72.82
2022-11-02T11:19:40.409Z,71.60
2022-11-02T11:20:44.757Z,71.65
2022-11-02T11:21:47.663Z,72.28
2022-11-02T11:23:09.243Z,70.02
2022-11-02T11:24:23.051Z,72.00
2022-11-02T11:25:28.233Z,72.28
2022-11-02T11:26:33.111Z,71.66
2022-11-02T11:27:45.295Z,71.18
2022-11-02T11:28:55.179Z,71.65
2022-11-02T11:30:00.276Z,71.24
2022-11-02T11:31:15.034Z,71.42
2022-11-02T11:32:20.326Z,71.92
2022-11-02T11:33:23.397Z,70.94
2022-11-02T11:34:28.683Z,71.38
2022-11-02T11:35:33.584Z,71.24
2022-11-02T11:36:37.881Z,71.37
2022-11-02T11:37:49.362Z,70.42
2022-11-02T11:38:54.155Z,70.75
2022-11-02T11:40:00.897Z,70.64
2022-11-02T11:41:07.895Z,70.48
2022-11-02T11:42:16.294Z,69.64
2022-11-02T11:43:20.215Z,70.37
2022-11-02T11:44:24.153Z,70.12
2022-11-02T11:45:28.644Z,69.81
2022-11-02T11:46:45.175Z,69.55
2022-11-02T11:47:53.197Z,68.10
2022-11-02T11:48:59.794Z,69.65
2022-11-02T11:50:21.325Z,68.62
2022-11-02T11:51:32.404Z,69.72
2022-11-02T11:52:36.445Z,68.92
2022-11-02T11:53:39.064Z,69.04
2022-11-02T11:54:54.372Z,67.69
2022-11-02T11:56:00.084Z,68.53
2022-11-02T11:57:24.845Z,68.29
2022-11-02T11:58:29.965Z,69.15
2022-11-02T11:59:46.065Z,69.34
2022-11-02T12:01:09.296Z,69.08
2022-11-02T12:02:25.407Z,69.80
2022-11-02T12:03:29.273Z,70.04
2022-11-02T12:04:33.862Z,69.70
2022-11-02T12:05:49.454Z,69.69
2022-11-02T12:06:58.531Z,69.63
2022-11-02T12:08:21.141Z,68.67
2022-11-02T12:09:29.245Z,69.52
2022-11-02T12:10:53.098Z,69.16
2022-11-02T12:12:03.342Z,69.54
2022-11-02T12:13:15.581Z,67.97
2022-11-02T12:14:31.918Z,69.65
2022-11-02T12:15:47.076Z,67.82
2022-11-02T12:17:05.774Z,69.13
2022-11-02T12:18:31.264Z,69.41
2022-11-02T12:19:48.074Z,69.57
2022-11-02T12:20:57.465Z,68.62
2022-11-02T12:22:07.264Z,68.56
2022-11-02T12:23:24.115Z,68.71
2022-11-02T12:24:49.088Z,67.51
2022-11-02T12:26:01.611Z,68.14
2022-11-02T12:27:22.065Z,67.25
2022-11-02T12:28:33.811Z,68.02
2022-11-02T12:30:04.380Z,66.42
2022-11-02T12:31:19.037Z,67.45
2022-11-02T12:32:34.712Z,66.98
2022-11-02T12:33:51.527Z,65.39
2022-11-02T12:35:27.701Z,65.83
2022-11-02T12:37:18.100Z,64.85
2022-11-02T12:38:48.261Z,65.56
2022-11-02T12:40:05.365Z,66.32
2022-11-02T12:41:10.866Z,66.59
2022-11-02T12:42:25.594Z,65.72
2022-11-02T12:43:44.600Z,63.26
2022-11-02T12:44:57.856Z,63.61
2022-11-02T12:46:05.055Z,64.61
2022-11-02T12:47:18.644Z,64.48
2022-11-02T12:48:27.217Z,63.63
2022-11-02T12:49:40.810Z,63.00
2022-11-02T12:50:55.788Z,63.03
2022-11-02T12:52:04.633Z,64.54
2022-11-02T12:53:19.857Z,63.04
2022-11-02T12:54:27.293Z,64.24
2022-11-02T12:55:38.163Z,63.64
2022-11-02T12:56:48.320Z,63.43
2022-11-02T12:57:55.120Z,63.89
2022-11-02T12:58:58.864Z,63.50
2022-11-02T13:00:05.933Z,63.10
2022-11-02T13:01:14.540Z,62.67
2022-11-02T13:02:21.403Z,62.21
2022-11-02T13:03:30.873Z,61.10
2022-11-02T13:04:40.949Z,61.39
2022-11-02T13:05:47.621Z,61.57
2022-11-02T13:06:53.027Z,61.53
2022-11-02T13:08:01.638Z,61.61
2022-11-02T13:09:09.886Z,61.44
2022-11-02T13:10:16.456Z,60.74
2022-11-02T13:11:24.144Z,60.57
2022-11-02T13:12:27.534Z,60.52
2022-11-02T13:13:36.724Z,60.21
2022-11-02T13:14:42.676Z,60.60
2022-11-02T13:15:47.175Z,60.64
2022-11-02T13:16:54.553Z,61.25
2022-11-02T13:18:00.214Z,61.06
2022-11-02T13:19:04.797Z,61.06
2022-11-02T13:20:16.564Z,60.43
2022-11-02T13:21:23.435Z,60.70
2022-11-02T13:22:30.926Z,60.74
2022-11-02T13:23:39.603Z,61.35
2022-11-02T13:24:46.995Z,61.12
2022-11-02T13:25:52.015Z,61.29
2022-11-02T13:26:57.522Z,61.60
2022-11-02T13:28:15.107Z,61.53
2022-11-02T13:29:22.875Z,61.87
2022-11-02T13:30:25.532Z,61.77
2022-11-02T13:31:31.993Z,61.85
2022-11-02T13:32:38.064Z,61.90
2022-11-02T13:33:45.143Z,62.08
2022-11-02T13:34:50.384Z,61.94
2022-11-02T13:35:54.584Z,61.91
2022-11-02T13:36:58.342Z,62.10
2022-11-02T13:38:05.924Z,61.85
2022-11-02T13:39:15.304Z,61.48
2022-11-02T13:40:24.476Z,61.30
2022-11-02T13:41:52.904Z,59.02
2022-11-02T13:43:32.947Z,60.52
2022-11-02T13:45:15.345Z,60.94
2022-11-02T13:46:34.716Z,61.58
2022-11-02T13:47:58.252Z,62.12
2022-11-02T13:49:04.511Z,62.65
2022-11-02T13:50:12.169Z,62.61
2022-11-02T13:51:25.223Z,62.94
2022-11-02T13:52:35.996Z,63.44
2022-11-02T13:53:41.226Z,63.27
2022-11-02T13:54:47.029Z,63.66
2022-11-02T13:55:54.491Z,64.03
2022-11-02T13:56:59.931Z,64.28
2022-11-02T13:58:03.002Z,64.25
2022-11-02T13:59:08.873Z,64.49
2022-11-02T14:00:30.271Z,63.92
2022-11-02T14:01:36.746Z,63.75
2022-11-02T14:02:42.091Z,64.24
2022-11-02T14:03:50.875Z,64.20
2022-11-02T14:04:54.600Z,64.46
2022-11-02T14:06:00.467Z,64.27
2022-11-02T14:07:07.323Z,64.36
2022-11-02T14:08:12.905Z,64.26
2022-11-02T14:09:28.431Z,64.58
2022-11-02T14:10:33.756Z,64.60
2022-11-02T14:11:48.484Z,64.95
2022-11-02T14:12:51.334Z,65.37
2022-11-02T14:14:16.165Z,65.43
2022-11-02T14:15:46.645Z,65.21
2022-11-02T14:18:31.757Z,65.24
2022-11-02T14:19:51.743Z,64.77
2022-11-02T14:20:55.454Z,65.12
2022-11-02T14:22:11.452Z,65.00
2022-11-02T14:23:39.870Z,65.41
2022-11-02T14:24:55.612Z,65.85
2022-11-02T14:26:00.611Z,66.38
2022-11-02T14:27:05.353Z,66.43
2022-11-02T14:28:32.463Z,66.85
2022-11-02T14:29:53.242Z,67.06
2022-11-02T14:30:59.601Z,66.95
2022-11-02T14:32:05.915Z,67.34
2022-11-02T14:33:30.444Z,67.09
2022-11-02T14:34:56.013Z,67.42
2022-11-02T14:36:01.902Z,67.74
2022-11-02T14:37:20.736Z,67.71
2022-11-02T14:38:58.975Z,67.86
2022-11-02T14:40:09.270Z,68.22